Durham, NC (27705)

1:35 AM EST on February 01, 2015 (GMT -0500)
510sRus@ Pinedale Dr | Change Station
CLOSE
Current Station
Personal Weather Station
Location: Durham, NC
Elevation: 531 ft
Nearby Weather Stations

Elev 531 ft 36.03 °N, 78.98 °W | Updated 1 second ago

Partly Cloudy
Partly Cloudy
33.4 °F
Feels Like 33 °F
N
0.0
Wind Variable Wind from West
Gusts 0.0 mph

Today
High -- | Low -- °F
--% Chance of Precip.
Yesterday
High -- | Low -- °F
Precip. -- in
7:16 AM 5:42 PM
Waxing Gibbous, 93% visible
Pressure 30.26 in
Visibility 10.0 miles
Clouds Clear
Windchill 33 °F
Dew Point 24 °F
Humidity 68%
Rainfall 0.00 in
Snow Depth Not available.
UV 0 out of 12
Pollen 3.10 out of 12
Air Quality Not available.
Flu Activity Not available.
METAR KIGX 010556Z AUTO 00000KT 10SM CLR 02/M07 A3025 RMK AO2 SLP247 6//// T00171067 10033 21006 56011 PNO $

More Conditions Fewer Conditions

Pressure 30.26 in
Visibility 10.0 miles
Clouds Clear
Windchill 33 °F
Dew Point 24 °F
Humidity 68%
Rainfall 0.00 in
Snow Depth Not available.
UV 0 out of 12
Pollen 3.10 out of 12
Air Quality Not available.
Flu Activity Not available.
METAR KIGX 010556Z AUTO 00000KT 10SM CLR 02/M07 A3025 RMK AO2 SLP247 6//// T00171067 10033 21006 56011 PNO $

More Conditions Fewer Conditions

10-Day Weather Forecast

Almanac

Astronomy

Feb. 01, 2015 Rise Set
Actual Time
Civil Twilight
Nautical Twilight
Astronomical Twilight
Moon
Length of Visible Light
Length of Day
Tomorrow will be .
, % of the Moon is Illuminated

Today's Extremes

State Highs State Lows

Community

WunderPhotos

Upload Photos

1,792,323 photos uploaded!

WunderBlogs® & News

Nearby

Air Quality

  Air Quality AQ Index Pollutant
Not available.

Snow Depth

Station Depth Elevation

Earthquake Activity

City Distance Mag. Time & Date
Minimum magnitude displayed is 2.5.

Coastal Water Temperatures

Place Temperature

Nearby Weather Stations